createdAt,value
2017-12-26T00:00:32.990Z,26.27
2017-12-26T00:03:01.977Z,31.37
2017-12-26T00:05:30.206Z,32.03
2017-12-26T00:07:58.429Z,26.10
2017-12-26T00:10:26.641Z,30.03
2017-12-26T00:12:54.922Z,30.27
2017-12-26T00:15:23.182Z,31.27
2017-12-26T00:17:52.146Z,30.27
2017-12-26T00:20:20.428Z,31.97
2017-12-26T00:22:49.738Z,33.70
2017-12-26T00:25:18.011Z,28.10
2017-12-26T00:27:46.229Z,28.50
2017-12-26T00:30:14.457Z,26.90
2017-12-26T00:32:42.685Z,31.17
2017-12-26T00:35:10.937Z,26.17
2017-12-26T00:37:39.150Z,32.30
2017-12-26T00:40:07.387Z,37.00
2017-12-26T00:42:35.601Z,31.77
2017-12-26T00:45:03.826Z,31.87
2017-12-26T00:47:32.782Z,37.40
2017-12-26T00:50:01.011Z,29.27
2017-12-26T00:52:29.214Z,27.17
2017-12-26T00:54:57.469Z,29.13
2017-12-26T00:57:25.682Z,32.03
2017-12-26T00:59:53.890Z,29.10
2017-12-26T01:02:22.892Z,31.60
2017-12-26T01:04:51.108Z,25.23
2017-12-26T01:07:19.334Z,26.37
2017-12-26T01:09:47.793Z,31.47
2017-12-26T01:12:16.806Z,31.60
2017-12-26T01:14:45.034Z,30.03
2017-12-26T01:17:13.298Z,24.50
2017-12-26T01:19:41.507Z,26.47
2017-12-26T01:22:09.756Z,28.97
2017-12-26T01:24:38.006Z,27.73
2017-12-26T01:27:06.213Z,31.63
2017-12-26T01:29:34.443Z,23.57
2017-12-26T01:32:02.657Z,26.77
2017-12-26T01:34:30.906Z,27.87
2017-12-26T01:36:59.949Z,26.33
2017-12-26T01:39:28.149Z,25.13
2017-12-26T01:41:56.386Z,26.13
2017-12-26T01:44:24.607Z,25.53
2017-12-26T01:46:52.854Z,28.50
2017-12-26T01:49:21.826Z,33.83
2017-12-26T01:51:50.880Z,26.30
2017-12-26T01:54:19.129Z,25.00
2017-12-26T01:56:47.359Z,26.03
2017-12-26T01:59:15.561Z,28.50
2017-12-26T02:01:44.544Z,24.47
2017-12-26T02:04:13.544Z,21.20
2017-12-26T02:06:41.762Z,23.93
2017-12-26T02:09:09.990Z,24.87
2017-12-26T02:11:39.021Z,25.50
2017-12-26T02:14:07.232Z,21.93
2017-12-26T02:16:35.443Z,26.83
2017-12-26T02:19:04.433Z,23.17
2017-12-26T02:21:33.428Z,21.97
2017-12-26T02:24:02.410Z,21.03
2017-12-26T02:26:31.413Z,21.90
2017-12-26T02:28:59.646Z,19.73
2017-12-26T02:31:27.850Z,20.13
2017-12-26T02:33:56.846Z,26.83
2017-12-26T02:36:25.849Z,24.33
2017-12-26T02:38:54.818Z,22.87
2017-12-26T02:41:23.925Z,21.83
2017-12-26T02:43:52.922Z,20.77
2017-12-26T02:46:22.216Z,24.43
2017-12-26T02:48:51.214Z,23.27
2017-12-26T02:51:19.470Z,25.80
2017-12-26T02:53:47.677Z,23.80
2017-12-26T02:56:16.960Z,25.33
2017-12-26T02:58:45.957Z,24.10
2017-12-26T03:01:14.934Z,26.37
2017-12-26T03:03:43.418Z,27.23
2017-12-26T03:06:12.401Z,24.10
2017-12-26T03:08:47.364Z,22.30
2017-12-26T03:11:15.578Z,23.37
2017-12-26T03:13:43.820Z,25.23
2017-12-26T03:16:12.029Z,24.67
2017-12-26T03:18:40.252Z,25.73
2017-12-26T03:21:08.506Z,22.77
2017-12-26T03:23:36.721Z,21.00
2017-12-26T03:26:04.958Z,32.10
2017-12-26T03:28:33.973Z,25.80
2017-12-26T03:31:02.239Z,28.97
2017-12-26T03:33:31.231Z,26.83
2017-12-26T03:36:00.232Z,26.60
2017-12-26T03:38:29.221Z,22.47
2017-12-26T03:40:57.477Z,21.60
2017-12-26T03:43:26.465Z,20.70
2017-12-26T03:45:54.677Z,23.47
2017-12-26T03:48:22.923Z,24.33
2017-12-26T03:50:51.126Z,20.10
2017-12-26T03:53:19.345Z,21.40
2017-12-26T03:55:47.561Z,23.23
2017-12-26T03:58:15.816Z,18.33
2017-12-26T04:00:44.236Z,26.80
2017-12-26T04:03:12.476Z,22.97
2017-12-26T04:05:40.728Z,25.83
2017-12-26T04:08:08.962Z,22.13
2017-12-26T04:10:37.197Z,18.97
2017-12-26T04:13:05.401Z,22.90
2017-12-26T04:15:33.648Z,25.93
2017-12-26T04:18:02.132Z,28.40
2017-12-26T04:20:31.145Z,28.70
2017-12-26T04:22:59.362Z,25.60
2017-12-26T04:25:27.586Z,24.40
2017-12-26T04:27:55.820Z,24.90
2017-12-26T04:30:24.028Z,23.60
2017-12-26T04:32:52.253Z,26.87
2017-12-26T04:35:20.483Z,22.47
2017-12-26T04:37:49.477Z,27.50
2017-12-26T04:40:17.694Z,25.00
2017-12-26T04:42:46.685Z,24.10
2017-12-26T04:45:14.931Z,27.00
2017-12-26T04:47:43.144Z,22.40
2017-12-26T04:50:12.682Z,25.87
2017-12-26T04:52:41.677Z,27.90
2017-12-26T04:55:10.696Z,29.70
2017-12-26T04:57:38.902Z,29.67
2017-12-26T05:00:07.142Z,26.13
2017-12-26T05:02:35.357Z,28.83
2017-12-26T05:05:03.875Z,23.30
2017-12-26T05:07:32.114Z,25.60
2017-12-26T05:10:00.318Z,24.10
2017-12-26T05:12:29.523Z,28.70
2017-12-26T05:14:58.819Z,22.87
2017-12-26T05:17:27.798Z,26.00
2017-12-26T05:19:56.810Z,26.93
2017-12-26T05:22:25.817Z,25.43
2017-12-26T05:24:54.807Z,31.10
2017-12-26T05:27:23.770Z,29.40
2017-12-26T05:29:52.029Z,26.77
2017-12-26T05:32:20.241Z,31.50
2017-12-26T05:34:49.222Z,32.80
2017-12-26T05:37:17.802Z,25.43
2017-12-26T05:39:46.789Z,25.03
2017-12-26T05:42:15.814Z,25.23
2017-12-26T05:44:44.783Z,28.13
2017-12-26T05:47:13.782Z,22.90
2017-12-26T05:49:42.754Z,23.93
2017-12-26T05:52:11.030Z,21.40
2017-12-26T05:54:39.449Z,23.43
2017-12-26T05:57:07.653Z,24.27
2017-12-26T05:59:35.915Z,23.73
2017-12-26T06:02:04.125Z,26.57
2017-12-26T06:04:32.353Z,24.57
2017-12-26T06:07:00.898Z,23.00
2017-12-26T06:09:29.898Z,25.70
2017-12-26T06:11:58.912Z,26.13
2017-12-26T06:14:27.866Z,26.20
2017-12-26T06:16:56.161Z,26.80
2017-12-26T06:19:25.455Z,27.27
2017-12-26T06:21:53.677Z,24.67
2017-12-26T06:24:21.881Z,30.60
2017-12-26T06:26:50.118Z,25.70
2017-12-26T06:29:18.350Z,29.30
2017-12-26T06:31:47.350Z,27.60
2017-12-26T06:34:15.594Z,25.70
2017-12-26T06:36:43.805Z,26.10
2017-12-26T06:39:12.796Z,24.70
2017-12-26T06:41:41.781Z,28.47
2017-12-26T06:44:10.786Z,31.40
2017-12-26T06:46:39.247Z,28.17
2017-12-26T06:49:08.242Z,34.77
2017-12-26T06:51:37.234Z,29.50
2017-12-26T06:54:06.238Z,31.70
2017-12-26T06:56:34.461Z,34.57
2017-12-26T06:59:02.689Z,26.10
2017-12-26T07:01:31.670Z,32.10
2017-12-26T07:04:00.646Z,30.20
2017-12-26T07:06:29.141Z,29.40
2017-12-26T07:08:58.121Z,25.70
2017-12-26T07:11:26.349Z,29.00
2017-12-26T07:13:54.553Z,23.87
2017-12-26T07:16:22.791Z,26.57
2017-12-26T07:18:50.998Z,22.87
2017-12-26T07:21:24.893Z,23.30
2017-12-26T07:23:53.170Z,23.17
2017-12-26T07:26:21.398Z,28.30
2017-12-26T07:28:50.402Z,30.83
2017-12-26T07:31:18.617Z,26.67
2017-12-26T07:33:46.850Z,25.00
2017-12-26T07:36:15.070Z,27.53
2017-12-26T07:38:43.300Z,33.80
2017-12-26T07:41:11.517Z,27.77
2017-12-26T07:43:39.753Z,28.47
2017-12-26T07:46:07.955Z,27.77
2017-12-26T07:48:36.233Z,29.20
2017-12-26T07:51:04.454Z,28.03
2017-12-26T07:53:33.431Z,24.30
2017-12-26T07:56:01.649Z,31.97
2017-12-26T07:58:29.877Z,22.33
2017-12-26T08:00:58.102Z,23.07
2017-12-26T08:03:26.545Z,26.10
2017-12-26T08:05:55.534Z,26.37
2017-12-26T08:08:24.522Z,30.07
2017-12-26T08:10:52.761Z,26.20
2017-12-26T08:13:20.969Z,25.97
2017-12-26T08:15:49.965Z,26.43
2017-12-26T08:18:18.185Z,27.93
2017-12-26T08:20:46.395Z,29.07
2017-12-26T08:23:14.637Z,26.93
2017-12-26T08:25:42.866Z,26.63
2017-12-26T08:28:11.083Z,23.00
2017-12-26T08:30:39.293Z,20.60
2017-12-26T08:33:07.743Z,20.53
2017-12-26T08:35:35.955Z,21.57
2017-12-26T08:38:04.181Z,24.70
2017-12-26T08:40:32.414Z,21.23
2017-12-26T08:43:00.758Z,25.30
2017-12-26T08:45:28.973Z,23.97
2017-12-26T08:47:57.965Z,23.53
2017-12-26T08:50:26.964Z,22.57
2017-12-26T08:52:55.943Z,22.90
2017-12-26T08:55:24.961Z,19.77
2017-12-26T08:57:53.182Z,17.03
2017-12-26T09:00:21.413Z,22.20
2017-12-26T09:02:50.406Z,21.17
2017-12-26T09:05:18.633Z,25.30
2017-12-26T09:07:46.853Z,16.83
2017-12-26T09:10:15.099Z,17.90
2017-12-26T09:12:43.316Z,17.30
2017-12-26T09:15:11.536Z,18.33
2017-12-26T09:17:39.765Z,18.70
2017-12-26T09:20:07.985Z,17.63
2017-12-26T09:22:36.218Z,20.90
2017-12-26T09:25:04.649Z,19.00
2017-12-26T09:27:32.871Z,19.60
2017-12-26T09:30:01.090Z,20.20
2017-12-26T09:32:29.318Z,18.70
2017-12-26T09:34:57.541Z,15.10
2017-12-26T09:37:25.797Z,16.33
2017-12-26T09:39:54.808Z,15.70
2017-12-26T09:42:23.015Z,24.00
2017-12-26T09:44:51.248Z,15.40
2017-12-26T09:47:19.460Z,17.17
2017-12-26T09:49:47.669Z,17.10
2017-12-26T09:52:15.881Z,17.73
2017-12-26T09:54:44.191Z,16.83
2017-12-26T09:57:12.427Z,17.13
2017-12-26T09:59:40.674Z,16.67
2017-12-26T10:02:09.003Z,16.27
2017-12-26T10:04:37.205Z,22.20
2017-12-26T10:07:05.413Z,17.90
2017-12-26T10:09:33.665Z,21.60
2017-12-26T10:12:01.876Z,20.83
2017-12-26T10:14:30.081Z,21.93
2017-12-26T10:16:58.309Z,20.80
2017-12-26T10:19:26.537Z,22.20
2017-12-26T10:21:54.771Z,18.90
2017-12-26T10:24:22.991Z,22.07
2017-12-26T10:26:51.222Z,20.37
2017-12-26T10:29:19.463Z,20.27
2017-12-26T10:31:48.642Z,18.40
2017-12-26T10:34:16.859Z,16.13
2017-12-26T10:36:45.842Z,20.50
2017-12-26T10:39:14.093Z,21.50
2017-12-26T10:41:42.534Z,23.73
2017-12-26T10:44:11.556Z,24.70
2017-12-26T10:46:39.771Z,26.17
2017-12-26T10:49:07.998Z,19.20
2017-12-26T10:51:36.970Z,19.37
2017-12-26T10:54:05.974Z,21.73
2017-12-26T10:56:34.199Z,21.73
2017-12-26T10:59:02.431Z,20.30
2017-12-26T11:01:30.676Z,21.17
2017-12-26T11:03:58.900Z,17.87
2017-12-26T11:06:27.130Z,22.73
2017-12-26T11:08:55.370Z,21.40
2017-12-26T11:11:23.615Z,22.97
2017-12-26T11:13:51.823Z,24.27
2017-12-26T11:16:20.827Z,27.50
2017-12-26T11:18:49.055Z,27.50
2017-12-26T11:21:17.277Z,24.47
2017-12-26T11:23:45.502Z,22.13
2017-12-26T11:26:13.731Z,24.63
2017-12-26T11:28:41.954Z,22.83
2017-12-26T11:31:10.188Z,19.33
2017-12-26T11:33:38.410Z,23.10
2017-12-26T11:36:06.838Z,17.03
2017-12-26T11:38:35.079Z,15.00
2017-12-26T11:41:03.305Z,15.23
2017-12-26T11:43:31.527Z,15.20
2017-12-26T11:45:59.756Z,15.40
2017-12-26T11:48:28.752Z,15.80
2017-12-26T11:50:56.978Z,16.13
2017-12-26T11:53:25.231Z,14.60
2017-12-26T11:55:53.444Z,15.83
2017-12-26T11:58:21.697Z,18.00
2017-12-26T12:00:49.905Z,23.40
2017-12-26T12:03:18.146Z,19.80
2017-12-26T12:05:46.516Z,18.77
2017-12-26T12:08:14.946Z,15.70
2017-12-26T12:10:43.170Z,15.17
2017-12-26T12:13:11.383Z,17.40
2017-12-26T12:15:39.660Z,16.13
2017-12-26T12:18:07.873Z,13.67
2017-12-26T12:20:36.114Z,13.97
2017-12-26T12:23:05.424Z,12.70
2017-12-26T12:25:34.417Z,14.90
2017-12-26T12:28:03.712Z,13.23
2017-12-26T12:30:32.722Z,14.93
2017-12-26T12:33:00.970Z,11.43
2017-12-26T12:35:29.204Z,17.10
2017-12-26T12:37:57.455Z,14.53
2017-12-26T12:40:25.686Z,11.73
2017-12-26T12:42:53.927Z,12.10
2017-12-26T12:45:22.167Z,13.90
2017-12-26T12:47:51.150Z,15.27
2017-12-26T12:50:20.151Z,19.70
2017-12-26T12:52:48.403Z,16.93
2017-12-26T12:55:16.630Z,13.17
2017-12-26T12:57:44.863Z,16.90
2017-12-26T13:00:13.106Z,22.37
2017-12-26T13:02:41.342Z,15.03
2017-12-26T13:05:09.558Z,14.23
2017-12-26T13:07:37.790Z,14.77
2017-12-26T13:10:06.019Z,13.13
2017-12-26T13:12:34.280Z,12.73
2017-12-26T13:15:03.275Z,12.17
2017-12-26T13:17:31.518Z,14.77
2017-12-26T13:19:59.762Z,15.70
2017-12-26T13:22:28.747Z,14.00
2017-12-26T13:24:57.768Z,18.47
2017-12-26T13:27:26.727Z,17.17
2017-12-26T13:29:55.751Z,18.00
2017-12-26T13:32:23.972Z,17.83
2017-12-26T13:34:52.218Z,18.30
2017-12-26T13:37:20.654Z,16.07
2017-12-26T13:39:49.733Z,16.10
2017-12-26T13:42:17.949Z,17.13
2017-12-26T13:44:46.179Z,15.00
2017-12-26T13:47:14.406Z,16.73
2017-12-26T13:49:42.627Z,16.10
2017-12-26T13:52:10.858Z,17.43
2017-12-26T13:54:39.054Z,18.17
2017-12-26T13:57:07.497Z,17.07
2017-12-26T13:59:35.706Z,15.20
2017-12-26T14:02:03.921Z,17.10
2017-12-26T14:04:32.914Z,12.93
2017-12-26T14:07:01.902Z,14.40
2017-12-26T14:09:30.890Z,13.33
2017-12-26T14:11:59.102Z,16.17
2017-12-26T14:14:27.345Z,17.10
2017-12-26T14:16:56.343Z,16.23
2017-12-26T14:19:25.349Z,14.67
2017-12-26T14:21:54.327Z,15.87
2017-12-26T14:24:23.315Z,16.10
2017-12-26T14:26:52.304Z,14.10
2017-12-26T14:29:21.313Z,15.57
2017-12-26T14:31:49.530Z,17.40
2017-12-26T14:34:17.754Z,15.20
2017-12-26T14:36:47.046Z,14.70
2017-12-26T14:39:16.040Z,12.10
2017-12-26T14:41:45.030Z,13.53
2017-12-26T14:44:13.257Z,15.10
2017-12-26T14:46:41.790Z,13.60
2017-12-26T14:49:09.985Z,14.67
2017-12-26T14:51:38.217Z,13.70
2017-12-26T14:54:06.425Z,14.77
2017-12-26T14:56:34.639Z,16.27
2017-12-26T14:59:02.869Z,17.10
2017-12-26T15:01:31.846Z,12.30
2017-12-26T15:04:00.842Z,14.97
2017-12-26T15:06:29.818Z,14.90
2017-12-26T15:08:58.050Z,17.80
2017-12-26T15:11:26.267Z,13.67
2017-12-26T15:13:54.498Z,15.00
2017-12-26T15:16:22.730Z,12.33
2017-12-26T15:21:48.570Z,14.63
2017-12-26T15:24:17.569Z,16.20
2017-12-26T15:26:45.818Z,15.03
2017-12-26T15:29:14.072Z,17.07
2017-12-26T15:31:42.325Z,19.23
2017-12-26T15:34:11.377Z,14.73
2017-12-26T15:36:39.582Z,15.70
2017-12-26T15:39:08.139Z,15.67
2017-12-26T15:41:37.122Z,16.80
2017-12-26T15:44:05.408Z,16.10
2017-12-26T15:46:33.762Z,19.73
2017-12-26T15:49:02.010Z,20.43
2017-12-26T15:51:30.222Z,17.23
2017-12-26T15:53:58.491Z,18.33
2017-12-26T15:56:26.704Z,18.13
2017-12-26T15:58:55.268Z,25.87
2017-12-26T16:01:24.276Z,19.20
2017-12-26T16:03:52.494Z,18.67
2017-12-26T16:06:20.725Z,15.60
2017-12-26T16:08:48.957Z,18.53
2017-12-26T16:11:17.990Z,19.27
2017-12-26T16:13:46.217Z,17.10
2017-12-26T16:16:14.462Z,16.87
2017-12-26T16:18:42.673Z,17.33
2017-12-26T16:21:10.935Z,17.20
2017-12-26T16:23:39.190Z,22.53
2017-12-26T16:26:07.626Z,21.50
2017-12-26T16:28:35.884Z,22.80
2017-12-26T16:31:04.111Z,21.17
2017-12-26T16:33:32.358Z,17.70
2017-12-26T16:36:01.337Z,18.30
2017-12-26T16:38:30.330Z,18.13
2017-12-26T16:40:58.566Z,19.27
2017-12-26T16:43:26.787Z,23.30
2017-12-26T16:45:55.768Z,24.43
2017-12-26T16:48:25.181Z,18.40
2017-12-26T16:50:54.193Z,21.90
2017-12-26T16:53:22.424Z,17.40
2017-12-26T16:55:50.637Z,16.77
2017-12-26T16:58:18.891Z,16.13
2017-12-26T17:00:48.653Z,21.77
2017-12-26T17:03:16.861Z,17.23
2017-12-26T17:05:45.877Z,19.17
2017-12-26T17:08:14.885Z,18.30
2017-12-26T17:10:43.121Z,17.00
2017-12-26T17:13:11.354Z,22.40
2017-12-26T17:15:39.575Z,18.00
2017-12-26T17:18:07.821Z,18.57
2017-12-26T17:20:36.862Z,22.67
2017-12-26T17:23:05.080Z,19.30
2017-12-26T17:25:33.308Z,20.90
2017-12-26T17:28:01.561Z,18.20
2017-12-26T17:30:30.570Z,18.17
2017-12-26T17:32:58.795Z,22.90
2017-12-26T17:35:27.437Z,24.70
2017-12-26T17:37:56.451Z,19.27
2017-12-26T17:40:24.675Z,19.47
2017-12-26T17:45:50.889Z,19.73
2017-12-26T17:48:19.113Z,15.43
2017-12-26T17:50:48.123Z,19.50
2017-12-26T17:53:16.361Z,15.90
2017-12-26T17:55:44.594Z,19.00
2017-12-26T17:58:12.819Z,17.20
2017-12-26T18:00:41.058Z,16.37
2017-12-26T18:03:09.264Z,15.27
2017-12-26T18:05:37.482Z,18.10
2017-12-26T18:08:05.780Z,19.83
2017-12-26T18:10:34.718Z,16.83
2017-12-26T18:13:02.986Z,18.00
2017-12-26T18:15:31.199Z,20.47
2017-12-26T18:17:59.441Z,23.17
2017-12-26T18:20:27.658Z,21.30
2017-12-26T18:22:55.934Z,22.17
2017-12-26T18:25:24.142Z,22.93
2017-12-26T18:27:52.447Z,23.33
2017-12-26T18:30:21.433Z,24.43
2017-12-26T18:32:49.657Z,22.20
2017-12-26T18:35:17.894Z,30.93
2017-12-26T18:37:46.893Z,21.13
2017-12-26T18:40:15.902Z,23.23
2017-12-26T18:42:44.111Z,25.27
2017-12-26T18:45:12.345Z,27.17
2017-12-26T18:47:40.574Z,24.90
2017-12-26T18:50:08.874Z,26.97
2017-12-26T18:52:37.101Z,16.90
2017-12-26T18:55:05.667Z,20.33
2017-12-26T18:57:33.906Z,24.70
2017-12-26T19:00:02.925Z,21.47
2017-12-26T19:02:31.158Z,19.33
2017-12-26T19:05:00.176Z,22.10
2017-12-26T19:07:29.213Z,25.87
2017-12-26T19:09:57.441Z,22.23
2017-12-26T19:12:25.677Z,23.43
2017-12-26T19:14:53.908Z,19.80
2017-12-26T19:17:22.137Z,20.87
2017-12-26T19:19:50.362Z,18.37
2017-12-26T19:22:18.597Z,14.97
2017-12-26T19:24:46.826Z,16.77
2017-12-26T19:27:15.261Z,18.93
2017-12-26T19:29:43.561Z,18.80
2017-12-26T19:32:11.959Z,22.50
2017-12-26T19:34:41.129Z,25.00
2017-12-26T19:37:09.357Z,21.00
2017-12-26T19:39:37.621Z,20.30
2017-12-26T19:42:05.848Z,21.63
2017-12-26T19:44:34.277Z,18.93
2017-12-26T19:47:02.641Z,21.47
2017-12-26T19:49:31.069Z,18.03
2017-12-26T19:52:00.076Z,16.73
2017-12-26T19:54:29.301Z,15.23
2017-12-26T19:56:57.662Z,16.47
2017-12-26T19:59:26.644Z,17.23
2017-12-26T20:01:55.017Z,16.73
2017-12-26T20:04:23.261Z,14.87
2017-12-26T20:06:51.600Z,15.50
2017-12-26T20:09:19.822Z,13.60
2017-12-26T20:11:48.829Z,15.90
2017-12-26T20:14:17.060Z,17.50
2017-12-26T20:19:44.659Z,15.73
2017-12-26T20:22:12.997Z,18.80
2017-12-26T20:24:41.214Z,16.70
2017-12-26T20:27:09.474Z,24.03
2017-12-26T20:29:38.398Z,19.00
2017-12-26T20:32:06.619Z,17.07
2017-12-26T20:34:34.849Z,22.10
2017-12-26T20:37:03.861Z,23.50
2017-12-26T20:39:32.973Z,22.00
2017-12-26T20:42:01.455Z,17.67
2017-12-26T20:44:29.919Z,18.80
2017-12-26T20:46:58.937Z,19.50
2017-12-26T20:49:27.216Z,22.03
2017-12-26T20:51:55.461Z,20.60
2017-12-26T20:54:23.691Z,18.57
2017-12-26T20:56:51.947Z,19.10
2017-12-26T20:59:20.160Z,22.00
2017-12-26T21:01:48.394Z,19.67
2017-12-26T21:04:16.640Z,21.03
2017-12-26T21:06:45.207Z,20.20
2017-12-26T21:09:14.235Z,19.50
2017-12-26T21:11:43.152Z,21.17
2017-12-26T21:14:11.664Z,20.97
2017-12-26T21:16:40.677Z,18.33
2017-12-26T21:19:09.350Z,15.90
2017-12-26T21:21:38.665Z,17.30
2017-12-26T21:24:07.633Z,17.97
2017-12-26T21:26:35.869Z,17.50
2017-12-26T21:29:04.077Z,14.93
2017-12-26T21:31:33.394Z,19.37
2017-12-26T21:34:02.381Z,17.90
2017-12-26T21:36:31.397Z,24.83
2017-12-26T21:38:59.653Z,22.00
2017-12-26T21:41:27.869Z,17.70
2017-12-26T21:43:56.086Z,22.40
2017-12-26T21:46:24.318Z,23.57
2017-12-26T21:48:52.534Z,20.37
2017-12-26T21:51:20.762Z,29.07
2017-12-26T21:53:49.809Z,22.03
2017-12-26T21:56:18.035Z,22.27
2017-12-26T21:58:46.293Z,22.33
2017-12-26T22:01:14.543Z,20.57
2017-12-26T22:03:42.837Z,20.63
2017-12-26T22:06:11.028Z,23.17
2017-12-26T22:08:39.254Z,19.63
2017-12-26T22:11:07.553Z,19.73
2017-12-26T22:13:36.573Z,18.50
2017-12-26T22:16:04.826Z,20.03
2017-12-26T22:18:33.046Z,21.93
2017-12-26T22:21:01.796Z,23.33
2017-12-26T22:23:31.161Z,18.43
2017-12-26T22:25:59.405Z,24.33
2017-12-26T22:28:27.654Z,19.70
2017-12-26T22:30:55.895Z,21.20
2017-12-26T22:33:24.983Z,19.83
2017-12-26T22:35:53.229Z,16.53
2017-12-26T22:38:21.547Z,16.57
2017-12-26T22:40:50.026Z,17.50
2017-12-26T22:43:18.240Z,15.17
2017-12-26T22:45:46.471Z,14.87
2017-12-26T22:48:15.489Z,18.20
2017-12-26T22:50:44.503Z,16.67
2017-12-26T22:53:12.728Z,15.33
2017-12-26T22:55:40.932Z,20.40
2017-12-26T22:58:09.172Z,17.90
2017-12-26T23:00:37.406Z,19.83
2017-12-26T23:03:05.933Z,17.63
2017-12-26T23:05:34.917Z,17.57
2017-12-26T23:08:03.161Z,16.57
2017-12-26T23:10:31.405Z,18.70
2017-12-26T23:12:59.617Z,17.97
2017-12-26T23:29:10.485Z,20.27
2017-12-26T23:31:44.449Z,18.60
2017-12-26T23:34:18.359Z,16.87
2017-12-26T23:36:52.351Z,17.47
2017-12-26T23:39:26.333Z,17.33
2017-12-26T23:44:59.922Z,20.17
2017-12-26T23:47:33.954Z,19.90
2017-12-26T23:50:07.885Z,22.97
2017-12-26T23:52:42.596Z,32.60
2017-12-26T23:55:17.353Z,24.33
